Time;durP1;ratioP1;P1;durP2;ratioP2;P2;SDS_P1;SDS_P2;PMS_P1;PMS_P2;Temp;Humidity;BMP_temperature;BMP_pressure;BME280_temperature;BME280_humidity;BME280_pressure;Samples;Min_cycle;Max_cycle;Signal;HPM_P1;HPM_P2
2022/06/04 00:00:07;;;;;;;;;;;28.00;55.20;;;;;;682918;29;1001;-82
2022/06/04 00:00:28;;;;;;;;;;;28.00;55.20;;;;;;682873;28;889;-86
2022/06/04 00:00:50;;;;;;;;;;;28.10;55.30;;;;;;683014;28;860;-87
2022/06/04 00:01:10;;;;;;;;;;;28.00;55.20;;;;;;682995;28;948;-87
2022/06/04 00:01:31;;;;;;;;;;;28.00;55.20;;;;;;682949;28;831;-86
2022/06/04 00:01:52;;;;;;;;;;;28.00;55.20;;;;;;682913;29;835;-86
2022/06/04 00:02:12;;;;;;;;;;;28.00;55.20;;;;;;682884;29;928;-87
2022/06/04 00:02:37;;;;;;;;;;;28.00;55.20;;;;;;682898;28;861;-83
2022/06/04 00:02:58;;;;;;;;;;;28.00;55.20;;;;;;682977;28;1024;-86
2022/06/04 00:03:19;;;;;;;;;;;28.10;55.20;;;;;;683190;29;855;-83
2022/06/04 00:03:39;;;;;;;;;;;28.00;55.20;;;;;;683389;28;846;-84
2022/06/04 00:04:00;;;;;;;;;;;28.00;56.30;;;;;;683439;28;802;-82
2022/06/04 00:04:21;;;;;;;;;;;28.00;55.20;;;;;;683351;29;914;-84
2022/06/04 00:04:41;;;;;;;;;;;28.00;55.20;;;;;;683331;29;820;-84
2022/06/04 00:05:02;;;;;;;;;;;28.00;55.20;;;;;;683399;29;910;-84
2022/06/04 00:05:24;;;;;;;;;;;28.00;55.20;;;;;;683363;28;871;-83
2022/06/04 00:05:46;;;;;;;;;;;28.00;55.20;;;;;;683417;28;842;-84
2022/06/04 00:06:07;;;;;;;;;;;28.00;55.20;;;;;;683044;29;1305;-84
2022/06/04 00:06:27;;;;;;;;;;;28.00;55.30;;;;;;683266;29;799;-85
2022/06/04 00:06:48;;;;;;;;;;;28.00;55.30;;;;;;683131;29;850;-82
2022/06/04 00:07:09;;;;;;;;;;;28.00;55.20;;;;;;682985;29;888;-83
2022/06/04 00:07:30;;;;;;;;;;;28.00;55.30;;;;;;683185;29;835;-84
2022/06/04 00:07:51;;;;;;;;;;;28.00;55.20;;;;;;683238;29;933;-83
2022/06/04 00:08:11;;;;;;;;;;;28.00;55.20;;;;;;682974;29;1331;-84
2022/06/04 00:08:32;;;;;;;;;;;28.00;55.20;;;;;;683057;29;807;-84
2022/06/04 00:08:53;;;;;;;;;;;28.10;55.20;;;;;;683075;29;914;-83
2022/06/04 00:09:15;;;;;;;;;;;28.10;55.20;;;;;;683121;29;850;-85
2022/06/04 00:09:35;;;;;;;;;;;28.00;55.10;;;;;;683082;29;941;-86
2022/06/04 00:15:32;;;;;;;;;;;28.00;55.10;;;;;;683209;29;760;-87
2022/06/04 00:15:53;;;;;;;;;;;28.00;55.10;;;;;;683404;28;791;-87
2022/06/04 00:16:14;;;;;;;;;;;28.00;55.20;;;;;;683221;28;941;-84
2022/06/04 00:16:35;;;;;;;;;;;28.00;55.10;;;;;;683283;29;799;-85
2022/06/04 00:16:55;;;;;;;;;;;28.00;55.20;;;;;;683362;29;930;-86
2022/06/04 00:17:16;;;;;;;;;;;28.00;55.10;;;;;;683213;29;843;-86
2022/06/04 00:17:36;;;;;;;;;;;28.00;55.20;;;;;;683182;29;945;-86
2022/06/04 00:17:57;;;;;;;;;;;28.00;55.20;;;;;;683378;29;796;-85
2022/06/04 00:18:18;;;;;;;;;;;28.00;55.20;;;;;;683204;29;894;-87
2022/06/04 00:18:40;;;;;;;;;;;28.00;55.20;;;;;;683270;28;949;-87
2022/06/04 00:19:00;;;;;;;;;;;28.00;55.20;;;;;;683166;28;884;-86
2022/06/04 00:19:21;;;;;;;;;;;28.00;55.20;;;;;;683286;29;776;-85
2022/06/04 00:19:42;;;;;;;;;;;28.00;55.20;;;;;;683311;28;791;-85
2022/06/04 00:20:03;;;;;;;;;;;28.00;55.20;;;;;;682982;29;1332;-86
2022/06/04 00:20:23;;;;;;;;;;;28.00;55.20;;;;;;683412;28;838;-84
2022/06/04 00:20:44;;;;;;;;;;;28.00;55.20;;;;;;682949;29;843;-85
2022/06/04 00:21:05;;;;;;;;;;;28.00;55.20;;;;;;683081;29;792;-85
2022/06/04 00:21:26;;;;;;;;;;;28.00;55.20;;;;;;683024;29;863;-87
2022/06/04 00:21:48;;;;;;;;;;;28.10;55.20;;;;;;683057;29;795;-85
2022/06/04 00:22:09;;;;;;;;;;;28.00;55.30;;;;;;683010;29;922;-84
2022/06/04 00:22:29;;;;;;;;;;;28.00;55.20;;;;;;683203;29;862;-86
2022/06/04 00:22:50;;;;;;;;;;;28.00;55.20;;;;;;683352;29;866;-85
2022/06/04 00:23:11;;;;;;;;;;;28.00;55.20;;;;;;682907;29;1502;-84
2022/06/04 00:23:32;;;;;;;;;;;28.00;55.20;;;;;;682956;29;1099;-85
2022/06/04 00:23:53;;;;;;;;;;;28.00;55.20;;;;;;683194;29;878;-85
2022/06/04 00:24:13;;;;;;;;;;;28.00;55.20;;;;;;682939;29;943;-86
2022/06/04 00:24:34;;;;;;;;;;;28.00;55.20;;;;;;683063;29;878;-86
2022/06/04 00:24:55;;;;;;;;;;;28.00;55.20;;;;;;682613;29;902;-85
2022/06/04 00:25:16;;;;;;;;;;;28.00;55.20;;;;;;683054;29;882;-86
2022/06/04 00:25:38;;;;;;;;;;;28.00;55.20;;;;;;683002;29;791;-85
2022/06/04 00:26:00;;;;;;;;;;;28.10;55.30;;;;;;683024;29;811;-86
2022/06/04 00:26:21;;;;;;;;;;;28.10;55.30;;;;;;683171;29;867;-87
2022/06/04 00:26:42;;;;;;;;;;;28.10;55.30;;;;;;683100;29;857;-87
2022/06/04 00:27:03;;;;;;;;;;;28.00;55.20;;;;;;683181;29;950;-84
2022/06/04 00:27:23;;;;;;;;;;;28.10;55.30;;;;;;683348;28;807;-85
2022/06/04 00:27:44;;;;;;;;;;;28.10;55.30;;;;;;683137;29;945;-87
2022/06/04 00:28:05;;;;;;;;;;;28.10;55.30;;;;;;683275;28;866;-87
2022/06/04 00:28:26;;;;;;;;;;;27.20;54.60;;;;;;683379;28;566;-87
2022/06/04 00:28:47;;;;;;;;;;;28.00;55.20;;;;;;683225;28;890;-86
2022/06/04 00:29:09;;;;;;;;;;;28.10;55.30;;;;;;683279;28;807;-87
2022/06/04 00:29:30;;;;;;;;;;;28.10;55.30;;;;;;683348;28;928;-84
2022/06/04 00:29:52;;;;;;;;;;;28.10;55.30;;;;;;683275;28;1109;-83
2022/06/04 00:30:13;;;;;;;;;;;28.10;55.30;;;;;;683107;29;1108;-84
2022/06/04 00:30:34;;;;;;;;;;;28.10;55.20;;;;;;683242;28;799;-83
2022/06/04 00:30:56;;;;;;;;;;;28.00;55.20;;;;;;683329;28;829;-84
2022/06/04 00:31:17;;;;;;;;;;;28.10;55.30;;;;;;683123;28;1911;-86
2022/06/04 00:31:37;;;;;;;;;;;28.10;55.30;;;;;;683169;29;914;-85
2022/06/04 00:31:58;;;;;;;;;;;28.00;55.30;;;;;;683249;29;815;-86
2022/06/04 00:32:18;;;;;;;;;;;28.00;55.20;;;;;;683195;29;839;-86
2022/06/04 00:32:39;;;;;;;;;;;28.10;55.30;;;;;;683239;29;866;-86
2022/06/04 00:33:00;;;;;;;;;;;28.10;55.30;;;;;;683315;29;886;-87
2022/06/04 00:33:21;;;;;;;;;;;28.10;55.30;;;;;;683389;28;866;-86
2022/06/04 00:33:42;;;;;;;;;;;28.10;55.30;;;;;;683154;28;826;-87
2022/06/04 00:34:03;;;;;;;;;;;28.10;55.30;;;;;;683181;28;851;-84
2022/06/04 00:34:24;;;;;;;;;;;28.10;55.30;;;;;;683338;28;786;-84
2022/06/04 00:34:44;;;;;;;;;;;28.10;55.30;;;;;;683230;28;1424;-84
2022/06/04 00:35:06;;;;;;;;;;;28.10;55.30;;;;;;683236;29;835;-84
2022/06/04 00:35:26;;;;;;;;;;;28.00;55.20;;;;;;683301;28;941;-83
2022/06/04 00:35:49;;;;;;;;;;;28.10;55.30;;;;;;683133;29;924;-82
2022/06/04 00:36:10;;;;;;;;;;;28.10;55.30;;;;;;683161;28;799;-82
2022/06/04 00:36:31;;;;;;;;;;;28.10;55.30;;;;;;683164;28;942;-82
2022/06/04 00:36:52;;;;;;;;;;;28.10;55.30;;;;;;683278;28;862;-83
2022/06/04 00:37:12;;;;;;;;;;;28.10;55.30;;;;;;683262;29;859;-84
2022/06/04 00:37:34;;;;;;;;;;;28.10;55.30;;;;;;683128;29;883;-83
2022/06/04 00:37:55;;;;;;;;;;;28.10;55.30;;;;;;683295;28;920;-82
2022/06/04 00:38:17;;;;;;;;;;;28.10;55.30;;;;;;683182;29;835;-83
2022/06/04 00:38:38;;;;;;;;;;;28.10;55.30;;;;;;683270;28;874;-83
2022/06/04 00:38:59;;;;;;;;;;;28.10;55.30;;;;;;683334;28;800;-84
2022/06/04 00:39:19;;;;;;;;;;;28.10;55.30;;;;;;683199;28;926;-84
2022/06/04 00:39:40;;;;;;;;;;;28.10;55.30;;;;;;683165;29;922;-82
2022/06/04 00:40:02;;;;;;;;;;;28.10;55.30;;;;;;683267;28;850;-83
2022/06/04 00:40:39;;;;;;;;;;;28.10;55.30;;;;;;683305;28;870;-82
2022/06/04 00:41:18;;;;;;;;;;;28.10;55.30;;;;;;683226;28;894;-83
2022/06/04 00:41:59;;;;;;;;;;;28.10;55.30;;;;;;683137;29;788;-82
2022/06/04 00:42:20;;;;;;;;;;;28.10;55.30;;;;;;683145;28;853;-83
2022/06/04 00:42:40;;;;;;;;;;;28.10;55.30;;;;;;683197;28;831;-84
2022/06/04 00:43:01;;;;;;;;;;;28.10;55.30;;;;;;682897;29;1711;-83
2022/06/04 00:43:22;;;;;;;;;;;28.10;55.30;;;;;;683082;29;883;-83
2022/06/04 00:43:57;;;;;;;;;;;28.10;55.30;;;;;;682947;29;847;-83
2022/06/04 00:44:19;;;;;;;;;;;28.10;55.30;;;;;;683027;29;810;-82
2022/06/04 00:44:48;;;;;;;;;;;28.10;55.20;;;;;;682826;29;1497;-83
2022/06/04 00:45:21;;;;;;;;;;;28.10;55.30;;;;;;683179;28;941;-82
2022/06/04 00:46:00;;;;;;;;;;;28.10;55.30;;;;;;683169;29;811;-81
2022/06/04 00:46:39;;;;;;;;;;;28.10;55.30;;;;;;682981;29;1268;-82
2022/06/04 00:47:09;;;;;;;;;;;28.10;55.30;;;;;;683100;29;807;-83
2022/06/04 00:47:30;;;;;;;;;;;28.00;55.40;;;;;;682989;29;882;-83
2022/06/04 00:47:51;;;;;;;;;;;28.10;55.60;;;;;;683072;29;882;-83
2022/06/04 00:48:11;;;;;;;;;;;28.10;55.50;;;;;;683003;29;1438;-84
2022/06/04 00:48:32;;;;;;;;;;;28.10;56.60;;;;;;683188;28;811;-84
2022/06/04 00:48:53;;;;;;;;;;;28.10;55.50;;;;;;683154;29;1469;-82
2022/06/04 00:49:18;;;;;;;;;;;28.00;55.50;;;;;;683212;29;835;-83
2022/06/04 00:49:39;;;;;;;;;;;28.10;55.50;;;;;;682992;29;815;-84
2022/06/04 00:49:59;;;;;;;;;;;28.10;55.50;;;;;;683156;29;854;-83
2022/06/04 00:50:21;;;;;;;;;;;28.10;55.60;;;;;;683244;29;910;-83
2022/06/04 00:50:42;;;;;;;;;;;28.00;55.50;;;;;;682964;29;796;-85
2022/06/04 00:51:04;;;;;;;;;;;28.10;55.70;;;;;;683064;29;819;-83
2022/06/04 00:51:25;;;;;;;;;;;28.10;55.50;;;;;;683123;29;1975;-84
2022/06/04 00:51:47;;;;;;;;;;;28.00;55.50;;;;;;683326;28;906;-83
2022/06/04 00:52:11;;;;;;;;;;;28.10;55.60;;;;;;683175;28;902;-82
2022/06/04 00:52:32;;;;;;;;;;;28.10;55.50;;;;;;683229;28;811;-83
2022/06/04 00:52:53;;;;;;;;;;;28.10;55.60;;;;;;683245;28;823;-84
2022/06/04 00:53:14;;;;;;;;;;;28.00;55.50;;;;;;683213;28;847;-84
2022/06/04 00:53:35;;;;;;;;;;;28.00;56.60;;;;;;683152;29;977;-83
2022/06/04 00:53:56;;;;;;;;;;;28.10;55.50;;;;;;683256;28;835;-83
2022/06/04 00:54:17;;;;;;;;;;;28.00;55.50;;;;;;683123;28;843;-83
2022/06/04 00:54:38;;;;;;;;;;;28.10;55.60;;;;;;683312;28;842;-83
2022/06/04 00:54:59;;;;;;;;;;;28.00;55.70;;;;;;683248;28;850;-82
2022/06/04 00:55:20;;;;;;;;;;;28.00;55.60;;;;;;683141;28;1322;-83
2022/06/04 00:55:47;;;;;;;;;;;28.10;56.00;;;;;;683188;28;827;-83
2022/06/04 00:56:22;;;;;;;;;;;28.10;55.70;;;;;;683094;28;1571;-83
2022/06/04 00:56:43;;;;;;;;;;;28.10;55.80;;;;;;683208;28;850;-84
2022/06/04 00:57:06;;;;;;;;;;;28.10;55.80;;;;;;682988;29;1292;-84
2022/06/04 00:57:30;;;;;;;;;;;28.10;55.80;;;;;;683236;29;863;-84
2022/06/04 00:58:05;;;;;;;;;;;28.00;55.80;;;;;;682948;29;1690;-85
2022/06/04 00:58:35;;;;;;;;;;;28.10;55.80;;;;;;683179;29;843;-83
2022/06/04 00:59:15;;;;;;;;;;;28.10;55.70;;;;;;683057;29;854;-86
2022/06/04 00:59:54;;;;;;;;;;;28.10;55.70;;;;;;682997;29;1282;-84
2022/06/04 01:00:17;;;;;;;;;;;28.10;55.60;;;;;;683019;29;985;-82
2022/06/04 01:01:07;;;;;;;;;;;28.10;55.70;;;;;;683166;28;836;-82
2022/06/04 01:01:30;;;;;;;;;;;28.00;55.80;;;;;;677701;29;827;-83
2022/06/04 01:02:00;;;;;;;;;;;28.00;55.70;;;;;;677696;29;962;-83
2022/06/04 01:02:32;;;;;;;;;;;28.10;55.80;;;;;;677708;29;843;-83
2022/06/04 01:02:52;;;;;;;;;;;28.10;55.70;;;;;;677698;29;819;-84
2022/06/04 01:03:23;;;;;;;;;;;28.10;55.70;;;;;;677593;29;886;-85
2022/06/04 01:03:55;;;;;;;;;;;28.00;55.60;;;;;;677634;29;926;-84
2022/06/04 01:04:47;;;;;;;;;;;28.00;55.80;;;;;;677595;29;820;-83
2022/06/04 01:05:05;;;;;;;;;;;28.00;56.00;;;;;;677611;29;1089;-83
2022/06/04 01:05:31;;;;;;;;;;;28.00;56.00;;;;;;677643;29;840;-84
2022/06/04 01:05:52;;;;;;;;;;;28.00;55.70;;;;;;677680;29;1013;-84
2022/06/04 01:06:12;;;;;;;;;;;28.00;56.00;;;;;;677646;29;915;-82
2022/06/04 01:06:43;;;;;;;;;;;28.00;56.00;;;;;;677620;29;1121;-84
2022/06/04 01:07:16;;;;;;;;;;;28.00;55.90;;;;;;677623;29;816;-82
2022/06/04 01:07:57;;;;;;;;;;;28.00;56.00;;;;;;677570;29;932;-83
2022/06/04 01:08:23;;;;;;;;;;;28.00;55.90;;;;;;677115;29;1385;-85
2022/06/04 01:09:02;;;;;;;;;;;28.00;56.00;;;;;;677570;29;813;-84
2022/06/04 01:09:26;;;;;;;;;;;28.00;56.00;;;;;;677681;29;824;-82
2022/06/04 01:10:00;;;;;;;;;;;28.00;56.00;;;;;;677572;29;891;-84
2022/06/04 01:10:23;;;;;;;;;;;28.00;55.80;;;;;;675140;29;960;-84
2022/06/04 01:10:50;;;;;;;;;;;28.00;55.90;;;;;;675007;29;891;-82
2022/06/04 01:11:33;;;;;;;;;;;28.00;56.00;;;;;;675676;29;820;-84
2022/06/04 01:12:12;;;;;;;;;;;28.00;56.00;;;;;;674956;29;1300;-83
2022/06/04 01:12:39;;;;;;;;;;;28.00;56.10;;;;;;675026;29;859;-82
2022/06/04 01:13:14;;;;;;;;;;;28.00;56.10;;;;;;675054;29;1520;-81
2022/06/04 01:13:35;;;;;;;;;;;28.00;56.00;;;;;;675103;29;907;-82
2022/06/04 01:14:00;;;;;;;;;;;27.40;55.70;;;;;;675049;29;855;-81
2022/06/04 01:14:39;;;;;;;;;;;28.00;56.10;;;;;;675039;29;996;-82
2022/06/04 01:15:02;;;;;;;;;;;28.00;56.10;;;;;;675117;29;919;-82
2022/06/04 01:15:29;;;;;;;;;;;28.00;56.10;;;;;;675611;29;852;-83
2022/06/04 01:15:52;;;;;;;;;;;28.00;56.10;;;;;;675491;29;973;-84
2022/06/04 01:16:31;;;;;;;;;;;28.00;56.10;;;;;;675483;29;956;-85
2022/06/04 01:17:05;;;;;;;;;;;28.00;56.20;;;;;;675647;29;903;-82
2022/06/04 01:17:32;;;;;;;;;;;28.00;56.00;;;;;;675568;29;861;-87
2022/06/04 01:18:01;;;;;;;;;;;28.00;56.10;;;;;;675568;29;950;-84
2022/06/04 01:18:24;;;;;;;;;;;28.00;56.20;;;;;;675656;29;864;-83
2022/06/04 01:18:52;;;;;;;;;;;28.00;56.30;;;;;;675545;29;828;-83
2022/06/04 01:19:22;;;;;;;;;;;28.00;56.30;;;;;;675301;29;1297;-84
2022/06/04 01:19:52;;;;;;;;;;;28.00;56.30;;;;;;675358;29;1395;-84
2022/06/04 01:20:18;;;;;;;;;;;28.00;56.40;;;;;;675383;29;1383;-84
2022/06/04 01:20:57;;;;;;;;;;;28.00;56.30;;;;;;675493;29;1061;-84
2022/06/04 01:21:22;;;;;;;;;;;28.00;56.30;;;;;;675566;29;800;-86
2022/06/04 01:21:45;;;;;;;;;;;27.90;56.10;;;;;;675455;29;955;-85
2022/06/04 01:22:08;;;;;;;;;;;27.90;56.30;;;;;;675527;29;1004;-85
2022/06/04 01:22:31;;;;;;;;;;;27.90;56.50;;;;;;675631;29;839;-85
2022/06/04 01:23:09;;;;;;;;;;;27.90;56.50;;;;;;675646;29;828;-84
2022/06/04 01:23:42;;;;;;;;;;;27.90;56.50;;;;;;675467;29;889;-86
2022/06/04 01:24:06;;;;;;;;;;;27.90;56.50;;;;;;675476;29;1153;-84
2022/06/04 01:24:44;;;;;;;;;;;27.90;56.60;;;;;;675368;29;1411;-84
2022/06/04 01:25:23;;;;;;;;;;;27.90;56.70;;;;;;675434;29;895;-85
2022/06/04 01:26:04;;;;;;;;;;;27.90;56.70;;;;;;675449;29;792;-83
2022/06/04 01:26:40;;;;;;;;;;;27.90;56.60;;;;;;675484;29;800;-83
2022/06/04 01:27:18;;;;;;;;;;;27.90;56.40;;;;;;675497;29;919;-85
2022/06/04 01:27:53;;;;;;;;;;;27.90;56.60;;;;;;675532;29;902;-85
2022/06/04 01:28:16;;;;;;;;;;;27.90;56.80;;;;;;675553;29;812;-84
2022/06/04 01:28:40;;;;;;;;;;;27.90;56.60;;;;;;672838;29;1591;-85
2022/06/04 01:29:05;;;;;;;;;;;27.90;56.60;;;;;;672925;29;884;-85
2022/06/04 01:29:32;;;;;;;;;;;27.90;56.60;;;;;;672875;29;1936;-85
2022/06/04 01:29:56;;;;;;;;;;;27.90;56.60;;;;;;673001;29;820;-84
2022/06/04 01:30:16;;;;;;;;;;;27.90;57.80;;;;;;672825;29;1107;-84
2022/06/04 01:30:42;;;;;;;;;;;27.90;56.80;;;;;;675381;29;988;-84
2022/06/04 01:31:05;;;;;;;;;;;27.90;57.00;;;;;;675795;29;891;-84
2022/06/04 01:31:37;;;;;;;;;;;27.90;56.90;;;;;;675655;29;1974;-83
2022/06/04 01:32:00;;;;;;;;;;;27.90;56.80;;;;;;673001;29;872;-85
2022/06/04 01:32:24;;;;;;;;;;;27.90;56.80;;;;;;673012;29;1092;-83
2022/06/04 01:33:03;;;;;;;;;;;27.90;56.80;;;;;;672991;29;815;-84
2022/06/04 01:33:29;;;;;;;;;;;27.90;57.00;;;;;;673113;29;820;-82
2022/06/04 01:33:52;;;;;;;;;;;27.90;57.10;;;;;;674433;29;851;-85
2022/06/04 01:34:16;;;;;;;;;;;27.90;57.00;;;;;;675496;29;819;-84
2022/06/04 01:34:39;;;;;;;;;;;27.90;57.00;;;;;;675642;29;850;-84
2022/06/04 01:35:18;;;;;;;;;;;27.90;57.00;;;;;;675646;29;803;-81
2022/06/04 01:35:44;;;;;;;;;;;27.90;56.90;;;;;;675466;29;823;-84
2022/06/04 01:36:10;;;;;;;;;;;27.90;57.00;;;;;;675608;29;863;-84
2022/06/04 01:36:39;;;;;;;;;;;27.90;56.90;;;;;;675527;29;787;-85
2022/06/04 01:37:11;;;;;;;;;;;27.90;57.00;;;;;;675619;29;1099;-83
2022/06/04 01:37:35;;;;;;;;;;;27.90;58.30;;;;;;675512;29;942;-83
2022/06/04 01:38:10;;;;;;;;;;;27.90;57.10;;;;;;675630;29;866;-83
2022/06/04 01:38:33;;;;;;;;;;;27.80;57.10;;;;;;675549;29;880;-82
2022/06/04 01:38:56;;;;;;;;;;;27.90;57.50;;;;;;676107;29;995;-83
2022/06/04 01:39:24;;;;;;;;;;;27.80;57.50;;;;;;678032;29;910;-83
2022/06/04 01:41:20;;;;;;;;;;;27.80;57.30;;;;;;678156;29;710;-83
2022/06/04 01:41:43;;;;;;;;;;;27.80;57.50;;;;;;678063;29;779;-83
2022/06/04 01:42:04;;;;;;;;;;;27.80;57.50;;;;;;678088;29;895;-83
2022/06/04 01:42:26;;;;;;;;;;;27.80;57.60;;;;;;678183;29;843;-85
2022/06/04 01:42:48;;;;;;;;;;;27.80;57.70;;;;;;678044;29;791;-84
2022/06/04 01:43:10;;;;;;;;;;;27.80;57.80;;;;;;678017;29;803;-83
2022/06/04 01:43:40;;;;;;;;;;;27.80;57.70;;;;;;678064;29;1107;-84
2022/06/04 01:44:05;;;;;;;;;;;27.80;57.80;;;;;;678060;29;784;-82
2022/06/04 01:44:32;;;;;;;;;;;27.80;57.80;;;;;;678154;29;819;-83
2022/06/04 01:44:53;;;;;;;;;;;27.80;57.80;;;;;;675693;29;1509;-83
2022/06/04 01:45:15;;;;;;;;;;;27.80;57.60;;;;;;675483;29;882;-83
2022/06/04 01:45:37;;;;;;;;;;;27.80;57.90;;;;;;675490;29;950;-85
2022/06/04 01:46:04;;;;;;;;;;;27.70;57.70;;;;;;675518;29;1456;-82
2022/06/04 01:46:29;;;;;;;;;;;27.80;57.60;;;;;;675567;29;859;-84
2022/06/04 01:46:51;;;;;;;;;;;27.80;57.80;;;;;;677530;29;898;-85
2022/06/04 01:47:12;;;;;;;;;;;27.80;57.80;;;;;;678053;29;847;-84
2022/06/04 01:47:33;;;;;;;;;;;27.80;57.80;;;;;;678097;29;823;-84
2022/06/04 01:47:56;;;;;;;;;;;27.80;58.00;;;;;;678201;29;839;-85
2022/06/04 01:48:18;;;;;;;;;;;27.80;58.00;;;;;;678050;29;883;-84
2022/06/04 01:48:40;;;;;;;;;;;27.80;58.00;;;;;;678082;29;812;-86
2022/06/04 01:49:03;;;;;;;;;;;27.80;58.00;;;;;;678072;29;812;-84
2022/06/04 01:49:26;;;;;;;;;;;27.80;58.00;;;;;;678194;29;870;-84
2022/06/04 01:49:51;;;;;;;;;;;27.80;58.00;;;;;;678025;29;902;-84
2022/06/04 01:50:15;;;;;;;;;;;27.70;58.00;;;;;;683651;28;874;-83
2022/06/04 01:50:39;;;;;;;;;;;27.70;58.00;;;;;;683723;28;799;-83
2022/06/04 01:51:01;;;;;;;;;;;27.80;58.10;;;;;;683746;28;858;-85
2022/06/04 01:51:22;;;;;;;;;;;27.80;58.00;;;;;;683680;28;1960;-85
2022/06/04 01:51:44;;;;;;;;;;;27.70;58.00;;;;;;683526;28;866;-83
2022/06/04 01:52:08;;;;;;;;;;;27.80;58.10;;;;;;683673;28;838;-84
2022/06/04 01:52:31;;;;;;;;;;;27.80;58.10;;;;;;683730;28;838;-84
2022/06/04 01:52:53;;;;;;;;;;;27.70;58.00;;;;;;683803;28;799;-83
2022/06/04 01:53:16;;;;;;;;;;;27.80;58.10;;;;;;683566;28;920;-84
2022/06/04 01:53:38;;;;;;;;;;;27.70;58.00;;;;;;683544;28;964;-84
2022/06/04 01:54:01;;;;;;;;;;;27.80;58.10;;;;;;683675;29;866;-83
2022/06/04 01:54:24;;;;;;;;;;;27.70;58.00;;;;;;683726;28;870;-82
2022/06/04 01:54:51;;;;;;;;;;;27.70;58.10;;;;;;683646;29;697;-82
2022/06/04 01:55:18;;;;;;;;;;;27.70;58.10;;;;;;683567;28;838;-84
2022/06/04 01:55:51;;;;;;;;;;;27.80;58.10;;;;;;683640;28;913;-83
2022/06/04 01:56:16;;;;;;;;;;;27.70;58.10;;;;;;683574;28;855;-85
2022/06/04 01:56:39;;;;;;;;;;;27.70;58.10;;;;;;683167;29;985;-84
2022/06/04 01:57:04;;;;;;;;;;;27.70;57.80;;;;;;683519;29;835;-83
2022/06/04 01:57:29;;;;;;;;;;;27.70;58.00;;;;;;683435;29;906;-82
2022/06/04 01:58:00;;;;;;;;;;;27.70;58.10;;;;;;683337;29;846;-85
2022/06/04 01:58:27;;;;;;;;;;;27.70;58.10;;;;;;683616;29;867;-84
2022/06/04 01:58:51;;;;;;;;;;;27.70;58.10;;;;;;683647;28;815;-83
2022/06/04 01:59:30;;;;;;;;;;;27.70;58.20;;;;;;683626;28;854;-84
2022/06/04 01:59:51;;;;;;;;;;;27.70;58.20;;;;;;683725;29;815;-81
2022/06/04 02:00:18;;;;;;;;;;;27.70;58.10;;;;;;683429;28;931;-86
2022/06/04 02:00:44;;;;;;;;;;;27.70;58.10;;;;;;683602;28;831;-83
2022/06/04 02:01:08;;;;;;;;;;;27.70;58.10;;;;;;683627;28;827;-83
2022/06/04 02:01:30;;;;;;;;;;;27.70;58.20;;;;;;683819;28;905;-85
2022/06/04 02:01:52;;;;;;;;;;;27.70;58.20;;;;;;683712;28;814;-85
2022/06/04 02:02:15;;;;;;;;;;;27.70;58.10;;;;;;683496;28;1429;-83
2022/06/04 02:02:39;;;;;;;;;;;27.70;58.20;;;;;;683606;28;962;-82
2022/06/04 02:03:05;;;;;;;;;;;27.70;58.10;;;;;;683681;28;953;-84
2022/06/04 02:03:31;;;;;;;;;;;27.70;58.20;;;;;;683543;29;1392;-86
2022/06/04 02:03:57;;;;;;;;;;;27.70;59.30;;;;;;683772;28;807;-84
2022/06/04 02:04:22;;;;;;;;;;;27.70;58.20;;;;;;683217;29;1467;-84
2022/06/04 02:04:47;;;;;;;;;;;27.70;58.20;;;;;;683620;29;929;-83
2022/06/04 02:05:11;;;;;;;;;;;27.70;58.20;;;;;;683402;29;834;-84
2022/06/04 02:05:38;;;;;;;;;;;27.70;58.20;;;;;;683386;29;953;-85
2022/06/04 02:06:00;;;;;;;;;;;27.70;58.10;;;;;;683476;29;803;-83
2022/06/04 02:06:23;;;;;;;;;;;27.70;58.10;;;;;;683674;28;905;-83
2022/06/04 02:07:38;;;;;;;;;;;27.70;58.30;;;;;;683630;29;681;-83
2022/06/04 02:07:59;;;;;;;;;;;27.70;58.10;;;;;;683781;28;823;-84
2022/06/04 02:08:23;;;;;;;;;;;27.70;57.90;;;;;;683325;29;1369;-85
2022/06/04 02:08:50;;;;;;;;;;;27.70;58.00;;;;;;683451;29;831;-84
2022/06/04 02:09:15;;;;;;;;;;;27.70;58.10;;;;;;683386;29;472;-85
2022/06/04 02:09:36;;;;;;;;;;;27.70;58.20;;;;;;683351;29;898;-85
2022/06/04 02:10:06;;;;;;;;;;;27.70;58.10;;;;;;683570;29;839;-83
2022/06/04 02:10:31;;;;;;;;;;;27.70;58.10;;;;;;683902;28;944;-82
2022/06/04 02:10:58;;;;;;;;;;;27.70;58.00;;;;;;683723;28;874;-85
2022/06/04 02:11:20;;;;;;;;;;;27.70;58.00;;;;;;683407;28;1898;-83
2022/06/04 02:11:43;;;;;;;;;;;27.70;58.00;;;;;;683530;28;929;-82
2022/06/04 02:12:05;;;;;;;;;;;27.70;58.00;;;;;;683711;28;823;-83
2022/06/04 02:12:26;;;;;;;;;;;27.80;58.00;;;;;;683666;28;893;-84
2022/06/04 02:12:48;;;;;;;;;;;27.70;57.90;;;;;;683555;28;826;-83
2022/06/04 02:13:10;;;;;;;;;;;27.80;58.10;;;;;;683580;28;890;-85
2022/06/04 02:13:31;;;;;;;;;;;27.70;58.00;;;;;;683499;28;855;-84
2022/06/04 02:13:53;;;;;;;;;;;27.70;57.90;;;;;;683503;28;1318;-85
2022/06/04 02:14:14;;;;;;;;;;;27.70;57.70;;;;;;683741;28;937;-85
2022/06/04 02:14:35;;;;;;;;;;;27.70;57.80;;;;;;683853;28;806;-83
2022/06/04 02:14:55;;;;;;;;;;;27.80;57.90;;;;;;683720;29;922;-85
2022/06/04 02:15:18;;;;;;;;;;;27.70;57.70;;;;;;683538;29;906;-86
2022/06/04 02:15:42;;;;;;;;;;;27.80;57.90;;;;;;683552;28;898;-84
2022/06/04 02:16:08;;;;;;;;;;;27.80;57.90;;;;;;683655;28;816;-84
2022/06/04 02:16:34;;;;;;;;;;;27.80;57.80;;;;;;683609;28;964;-82
2022/06/04 02:16:58;;;;;;;;;;;27.70;57.40;;;;;;683657;28;807;-83
2022/06/04 02:17:21;;;;;;;;;;;27.70;57.50;;;;;;683597;28;780;-85
2022/06/04 02:17:44;;;;;;;;;;;27.80;57.50;;;;;;683546;28;491;-83
2022/06/04 02:18:05;;;;;;;;;;;27.70;57.40;;;;;;683570;28;831;-82
2022/06/04 02:18:26;;;;;;;;;;;27.70;57.50;;;;;;683260;29;894;-85
2022/06/04 02:18:47;;;;;;;;;;;27.80;57.60;;;;;;683404;29;898;-85
2022/06/04 02:19:07;;;;;;;;;;;27.70;57.50;;;;;;683482;29;807;-83
2022/06/04 02:19:28;;;;;;;;;;;27.80;57.70;;;;;;683481;29;898;-82
2022/06/04 02:19:48;;;;;;;;;;;27.80;57.70;;;;;;683339;29;779;-85
2022/06/04 02:20:10;;;;;;;;;;;27.80;57.50;;;;;;683527;29;1162;-83
2022/06/04 02:20:30;;;;;;;;;;;27.80;57.60;;;;;;683914;28;787;-84
2022/06/04 02:20:51;;;;;;;;;;;27.80;57.60;;;;;;683561;29;911;-83
2022/06/04 02:21:12;;;;;;;;;;;27.80;57.60;;;;;;683635;28;862;-83
2022/06/04 02:21:33;;;;;;;;;;;27.80;57.60;;;;;;683588;28;937;-83
2022/06/04 02:21:54;;;;;;;;;;;27.80;57.60;;;;;;683449;29;704;-83
2022/06/04 02:22:16;;;;;;;;;;;27.80;57.60;;;;;;683329;29;882;-83
2022/06/04 02:22:36;;;;;;;;;;;27.80;57.60;;;;;;683499;29;815;-83
2022/06/04 02:22:57;;;;;;;;;;;27.80;57.60;;;;;;683474;29;799;-83
2022/06/04 02:23:18;;;;;;;;;;;27.80;57.60;;;;;;683264;29;756;-85
2022/06/04 02:23:39;;;;;;;;;;;27.80;57.60;;;;;;683348;29;819;-84
2022/06/04 02:24:00;;;;;;;;;;;27.80;57.60;;;;;;683695;29;835;-85
2022/06/04 02:24:20;;;;;;;;;;;27.80;57.80;;;;;;683691;28;807;-85
2022/06/04 02:24:41;;;;;;;;;;;27.80;57.70;;;;;;683553;28;835;-85
2022/06/04 02:25:03;;;;;;;;;;;27.80;57.70;;;;;;683522;28;860;-86
2022/06/04 02:25:24;;;;;;;;;;;27.80;57.70;;;;;;683565;28;1064;-85
2022/06/04 02:25:44;;;;;;;;;;;27.80;57.70;;;;;;683587;28;819;-86
2022/06/04 02:26:05;;;;;;;;;;;27.80;57.60;;;;;;683524;28;911;-86
2022/06/04 02:26:27;;;;;;;;;;;27.90;57.70;;;;;;683235;28;1003;-83
2022/06/04 02:26:47;;;;;;;;;;;27.80;57.60;;;;;;683039;28;866;-85
2022/06/04 02:27:09;;;;;;;;;;;27.80;57.70;;;;;;683211;29;791;-84
2022/06/04 02:27:29;;;;;;;;;;;27.80;57.60;;;;;;683551;28;803;-85
2022/06/04 02:27:51;;;;;;;;;;;27.80;57.70;;;;;;683656;29;953;-84
2022/06/04 02:28:11;;;;;;;;;;;27.90;57.70;;;;;;683514;28;939;-84
2022/06/04 02:28:32;;;;;;;;;;;27.90;57.70;;;;;;683542;28;863;-85
2022/06/04 02:28:53;;;;;;;;;;;27.90;57.70;;;;;;683586;29;900;-85
2022/06/04 02:29:14;;;;;;;;;;;27.90;57.70;;;;;;683601;28;918;-85
2022/06/04 02:29:35;;;;;;;;;;;27.90;57.70;;;;;;683421;28;856;-83
2022/06/04 02:29:56;;;;;;;;;;;27.90;57.70;;;;;;683633;28;815;-85
2022/06/04 02:30:17;;;;;;;;;;;27.90;57.70;;;;;;683359;28;1318;-85
2022/06/04 02:30:49;;;;;;;;;;;27.90;57.70;;;;;;683550;28;878;-83
2022/06/04 02:31:28;;;;;;;;;;;27.90;57.70;;;;;;683653;28;806;-83
2022/06/04 02:31:53;;;;;;;;;;;27.90;57.70;;;;;;683514;29;878;-85
2022/06/04 02:32:35;;;;;;;;;;;27.90;57.70;;;;;;683619;28;891;-85
2022/06/04 02:33:01;;;;;;;;;;;27.90;57.60;;;;;;683693;28;866;-85
2022/06/04 02:33:34;;;;;;;;;;;27.90;57.60;;;;;;683677;28;820;-85
2022/06/04 02:34:03;;;;;;;;;;;27.90;57.70;;;;;;683620;29;855;-85
2022/06/04 02:34:42;;;;;;;;;;;27.90;57.70;;;;;;683652;29;903;-84
2022/06/04 02:35:08;;;;;;;;;;;27.90;57.70;;;;;;683506;29;887;-85
2022/06/04 02:35:32;;;;;;;;;;;27.90;57.70;;;;;;683594;29;799;-85
2022/06/04 02:35:56;;;;;;;;;;;27.90;57.70;;;;;;683597;28;887;-84
2022/06/04 02:36:22;;;;;;;;;;;27.90;57.60;;;;;;683541;28;650;-84
2022/06/04 02:36:43;;;;;;;;;;;27.90;57.60;;;;;;683351;28;1481;-86